Time;durP1;ratioP1;P1;durP2;ratioP2;P2;SDS_P1;SDS_P2;PMS_P1;PMS_P2;Temp;Humidity;BMP_temperature;BMP_pressure;BME280_temperature;BME280_humidity;BME280_pressure;Samples;Min_cycle;Max_cycle;Signal;HPM_P1;HPM_P2
2022/11/26 00:02:25;;;;;;;22.37;13.83;;;5.60;99.90;;;;;;8369369;28;20276;-79
2022/11/26 00:06:43;;;;;;;24.47;13.73;;;5.70;99.90;;;;;;8370654;28;20222;-80
2022/11/26 00:10:44;;;;;;;24.83;15.20;;;5.70;99.90;;;;;;8374067;28;20272;-80
2022/11/26 00:14:46;;;;;;;24.90;14.07;;;5.70;99.90;;;;;;8371239;28;20190;-80
2022/11/26 00:18:46;;;;;;;19.87;13.57;;;5.70;99.90;;;;;;8372597;28;20212;-80
2022/11/26 00:22:57;;;;;;;22.63;13.67;;;5.70;99.90;;;;;;8372290;28;20187;-80
2022/11/26 00:26:59;;;;;;;20.83;13.43;;;5.70;99.90;;;;;;8373938;28;20228;-80
2022/11/26 00:31:03;;;;;;;22.93;14.00;;;5.70;99.90;;;;;;8368247;28;20197;-80
2022/11/26 00:35:04;;;;;;;23.87;13.67;;;5.70;99.90;;;;;;8366478;28;20178;-79
2022/11/26 00:39:31;;;;;;;22.17;13.30;;;5.70;99.90;;;;;;8372646;28;20205;-80
2022/11/26 00:43:32;;;;;;;24.17;14.30;;;5.80;99.90;;;;;;8371146;28;20186;-80
2022/11/26 00:47:32;;;;;;;20.40;13.83;;;5.80;99.90;;;;;;8368681;28;20185;-80
2022/11/26 00:51:33;;;;;;;19.83;13.07;;;5.80;99.90;;;;;;8370343;28;20253;-80
2022/11/26 00:55:38;;;;;;;20.37;13.33;;;5.70;99.90;;;;;;8369671;28;20193;-79
2022/11/26 00:59:39;;;;;;;19.50;12.83;;;5.80;99.90;;;;;;8357861;28;20196;-79
2022/11/26 01:03:41;;;;;;;23.00;13.70;;;5.80;99.90;;;;;;8375031;28;20250;-80
2022/11/26 01:07:43;;;;;;;22.10;13.80;;;5.80;99.90;;;;;;8373224;28;20196;-79
2022/11/26 01:11:45;;;;;;;22.87;14.20;;;5.80;99.90;;;;;;8370817;28;20178;-79
2022/11/26 01:15:45;;;;;;;18.97;13.37;;;5.80;99.90;;;;;;8372909;28;20196;-79
2022/11/26 01:19:46;;;;;;;20.40;13.90;;;5.80;99.90;;;;;;8374540;28;20181;-79
2022/11/26 01:23:47;;;;;;;20.93;13.63;;;5.90;99.90;;;;;;8365058;28;20247;-79
2022/11/26 01:27:48;;;;;;;20.63;13.53;;;5.90;99.90;;;;;;8366291;28;20189;-79
2022/11/26 01:31:49;;;;;;;19.13;13.00;;;5.90;99.90;;;;;;8376015;28;20290;-79
2022/11/26 01:35:50;;;;;;;20.80;13.20;;;5.90;99.90;;;;;;8366753;28;20192;-80
2022/11/26 01:39:51;;;;;;;23.27;12.77;;;5.90;99.90;;;;;;8370796;28;20190;-80
2022/11/26 01:43:53;;;;;;;17.90;12.00;;;5.90;99.90;;;;;;8368970;28;20226;-79
2022/11/26 01:47:54;;;;;;;17.00;11.97;;;5.90;99.90;;;;;;8369076;28;20193;-80
2022/11/26 01:52:06;;;;;;;16.63;12.00;;;5.90;99.90;;;;;;8373686;28;20272;-79
2022/11/26 01:56:20;;;;;;;17.00;11.63;;;6.00;99.90;;;;;;8369886;28;20212;-79
2022/11/26 02:00:21;;;;;;;16.73;11.57;;;6.00;99.90;;;;;;8368588;28;20188;-79
2022/11/26 02:04:45;;;;;;;15.83;10.90;;;6.00;99.90;;;;;;8367866;28;20177;-79
2022/11/26 02:08:46;;;;;;;15.53;10.30;;;6.00;99.90;;;;;;8375949;28;20211;-79
2022/11/26 02:12:47;;;;;;;12.87;9.30;;;6.00;99.90;;;;;;8376270;28;20196;-79
2022/11/26 02:17:09;;;;;;;13.93;9.80;;;6.00;99.90;;;;;;8373179;28;20293;-79
2022/11/26 02:21:42;;;;;;;17.93;9.60;;;6.00;99.90;;;;;;8373295;28;20182;-79
2022/11/26 02:25:46;;;;;;;14.20;9.50;;;6.10;99.90;;;;;;8371959;28;20194;-80
2022/11/26 02:30:00;;;;;;;14.53;10.40;;;6.10;99.90;;;;;;8377061;28;20204;-79
2022/11/26 02:34:28;;;;;;;15.07;10.30;;;6.10;99.90;;;;;;8375742;28;20245;-80
2022/11/26 02:38:29;;;;;;;16.00;10.83;;;6.10;99.90;;;;;;8378322;28;20213;-79
2022/11/26 02:42:33;;;;;;;12.93;9.07;;;6.10;99.90;;;;;;8370700;28;20189;-80
2022/11/26 02:46:34;;;;;;;12.80;9.77;;;6.20;99.90;;;;;;8383528;28;20268;-80
2022/11/26 02:50:46;;;;;;;12.87;8.97;;;6.20;99.90;;;;;;8376176;28;20181;-79
2022/11/26 02:54:49;;;;;;;14.67;10.10;;;6.20;99.90;;;;;;8378969;28;20190;-80
2022/11/26 02:58:52;;;;;;;16.03;9.07;;;6.20;99.90;;;;;;8371761;28;20227;-79
2022/11/26 03:03:22;;;;;;;12.77;8.43;;;6.20;99.90;;;;;;8375225;28;20189;-79
2022/11/26 03:07:24;;;;;;;12.33;8.83;;;6.30;99.90;;;;;;8380616;28;20177;-80
2022/11/26 03:11:25;;;;;;;11.33;8.47;;;6.30;99.90;;;;;;8378493;28;20255;-80
2022/11/26 03:15:27;;;;;;;11.47;8.60;;;6.30;99.90;;;;;;8378869;28;20178;-80
2022/11/26 03:19:28;;;;;;;12.80;8.53;;;6.30;99.90;;;;;;8376202;28;20422;-79
2022/11/26 03:23:28;;;;;;;10.40;7.47;;;6.30;99.90;;;;;;8376542;28;20214;-80
2022/11/26 03:27:29;;;;;;;11.97;8.37;;;6.30;99.90;;;;;;8370338;28;20186;-80
2022/11/26 03:31:30;;;;;;;13.07;8.37;;;6.30;99.90;;;;;;8383650;28;20523;-79
2022/11/26 03:35:31;;;;;;;10.43;8.17;;;6.30;99.90;;;;;;8374664;28;20262;-79
2022/11/26 03:39:31;;;;;;;10.87;7.67;;;6.30;99.90;;;;;;8376045;28;20232;-79
2022/11/26 03:43:32;;;;;;;10.40;7.10;;;6.30;99.90;;;;;;8374229;28;20185;-80
2022/11/26 03:47:33;;;;;;;11.60;7.97;;;6.40;99.90;;;;;;8372249;28;20185;-80
2022/11/26 03:51:34;;;;;;;10.47;7.53;;;6.40;99.90;;;;;;8379225;28;20170;-79
2022/11/26 03:55:35;;;;;;;8.43;6.50;;;6.40;99.90;;;;;;8388563;28;20197;-79
2022/11/26 03:59:35;;;;;;;9.43;6.40;;;6.40;99.90;;;;;;8376302;28;20328;-79
2022/11/26 04:03:37;;;;;;;7.80;5.93;;;6.30;99.90;;;;;;8372137;28;20185;-79
2022/11/26 04:07:38;;;;;;;6.90;5.83;;;6.30;99.90;;;;;;8375282;28;20213;-79
2022/11/26 04:11:38;;;;;;;7.77;5.80;;;6.30;99.90;;;;;;8379989;28;20575;-79
2022/11/26 04:15:43;;;;;;;7.25;6.15;;;6.30;99.90;;;;;;8376708;28;20544;-79
2022/11/26 04:19:44;;;;;;;8.30;6.13;;;6.40;99.90;;;;;;8372539;28;20427;-79
2022/11/26 04:23:44;;;;;;;7.03;5.20;;;6.40;99.90;;;;;;8381248;28;20196;-79
2022/11/26 04:27:45;;;;;;;7.20;5.30;;;6.40;99.90;;;;;;8373642;28;20389;-80
2022/11/26 04:31:46;;;;;;;5.77;4.70;;;6.40;99.90;;;;;;8377191;28;20215;-79
2022/11/26 04:35:48;;;;;;;5.80;5.10;;;6.40;99.90;;;;;;8378640;28;20189;-80
2022/11/26 04:39:49;;;;;;;8.13;5.43;;;6.50;99.90;;;;;;8372682;28;20185;-80
2022/11/26 04:43:50;;;;;;;4.93;4.13;;;6.50;99.90;;;;;;8371696;28;20192;-79
2022/11/26 04:47:51;;;;;;;5.87;4.40;;;6.50;99.90;;;;;;8370979;28;20185;-80
2022/11/26 04:51:51;;;;;;;8.20;4.70;;;6.50;99.90;;;;;;8387821;28;20195;-79
2022/11/26 04:55:52;;;;;;;8.00;5.00;;;6.50;99.90;;;;;;8371401;28;20193;-79
2022/11/26 04:59:53;;;;;;;6.67;5.27;;;6.50;99.90;;;;;;8371342;28;20201;-79
2022/11/26 05:03:54;;;;;;;7.60;5.80;;;6.50;99.90;;;;;;8371476;28;20189;-79
2022/11/26 05:07:55;;;;;;;7.17;4.70;;;6.50;99.90;;;;;;8376120;28;20185;-80
2022/11/26 05:11:55;;;;;;;7.50;5.50;;;6.50;99.90;;;;;;8370482;28;20276;-79
2022/11/26 05:15:56;;;;;;;8.33;5.43;;;6.50;99.90;;;;;;8366995;28;20215;-80
2022/11/26 05:19:57;;;;;;;8.47;5.43;;;6.60;99.90;;;;;;8372670;28;20224;-80
2022/11/26 05:23:58;;;;;;;7.80;5.30;;;6.60;99.90;;;;;;8374400;28;20181;-79
2022/11/26 05:27:59;;;;;;;11.10;5.97;;;6.60;99.90;;;;;;8371329;28;20188;-80
2022/11/26 05:32:00;;;;;;;10.97;7.50;;;6.60;99.90;;;;;;8370759;28;20232;-80
2022/11/26 05:36:00;;;;;;;14.87;8.60;;;6.60;99.90;;;;;;8369163;28;20189;-80
2022/11/26 05:40:02;;;;;;;12.77;9.23;;;6.60;99.90;;;;;;8373828;28;20231;-79
2022/11/26 05:44:03;;;;;;;16.07;9.87;;;6.60;99.90;;;;;;8369163;28;20228;-80
2022/11/26 05:48:04;;;;;;;24.90;11.30;;;6.70;99.90;;;;;;8368662;28;20193;-79
2022/11/26 05:52:05;;;;;;;21.97;12.33;;;6.70;99.90;;;;;;8369936;28;20232;-80
2022/11/26 05:56:06;;;;;;;25.57;12.57;;;6.70;99.90;;;;;;8369194;28;20204;-80
2022/11/26 06:00:09;;;;;;;24.83;13.30;;;6.70;99.90;;;;;;8365968;28;20193;-80
2022/11/26 06:04:10;;;;;;;24.33;12.27;;;6.70;99.90;;;;;;8366199;28;20186;-80
2022/11/26 06:08:10;;;;;;;26.37;14.50;;;6.70;99.90;;;;;;8365464;28;20208;-80
2022/11/26 06:12:11;;;;;;;29.53;12.50;;;6.70;99.90;;;;;;8371647;28;20219;-80
2022/11/26 06:16:12;;;;;;;26.07;13.50;;;6.70;99.90;;;;;;8372613;28;20277;-80
2022/11/26 06:20:13;;;;;;;24.20;13.70;;;6.70;99.90;;;;;;8373416;28;20186;-80
2022/11/26 06:24:13;;;;;;;26.83;14.17;;;6.70;99.90;;;;;;8374677;28;20330;-80
2022/11/26 06:28:14;;;;;;;30.00;14.47;;;6.70;99.90;;;;;;8367047;28;20181;-79
2022/11/26 06:32:15;;;;;;;25.70;14.23;;;6.80;99.90;;;;;;8369295;28;20189;-79
2022/11/26 06:36:16;;;;;;;33.53;16.07;;;6.80;99.90;;;;;;8368634;28;20197;-78
2022/11/26 06:40:19;;;;;;;24.53;14.57;;;6.80;99.90;;;;;;8369110;28;20174;-79
2022/11/26 06:44:20;;;;;;;27.20;15.57;;;6.80;99.90;;;;;;8363772;28;20197;-80
2022/11/26 06:48:24;;;;;;;28.37;15.47;;;6.80;99.90;;;;;;8363007;28;20201;-80
2022/11/26 06:52:25;;;;;;;29.00;14.90;;;6.80;99.90;;;;;;8371631;28;20200;-80
2022/11/26 06:56:26;;;;;;;33.07;16.13;;;6.80;99.90;;;;;;8360960;28;20209;-80
2022/11/26 07:00:27;;;;;;;28.43;15.67;;;6.80;99.90;;;;;;8379605;28;20191;-79
2022/11/26 07:04:27;;;;;;;27.17;15.57;;;6.80;99.90;;;;;;8367747;28;20185;-79
2022/11/26 07:08:28;;;;;;;28.43;15.80;;;6.80;99.90;;;;;;8364172;28;20189;-78
2022/11/26 07:12:30;;;;;;;28.97;16.00;;;6.90;99.90;;;;;;8374469;28;20189;-78
2022/11/26 07:16:32;;;;;;;30.10;15.23;;;6.90;99.90;;;;;;8372356;28;20300;-80
2022/11/26 07:20:34;;;;;;;27.90;14.90;;;6.90;99.90;;;;;;8373792;28;20392;-80
2022/11/26 07:24:35;;;;;;;31.47;15.87;;;6.90;99.90;;;;;;8381225;28;20268;-79
2022/11/26 07:28:36;;;;;;;28.23;16.43;;;6.90;99.90;;;;;;8370338;28;20201;-81
2022/11/26 07:32:37;;;;;;;27.10;14.70;;;7.00;99.90;;;;;;8377914;28;20236;-80
2022/11/26 07:36:41;;;;;;;26.93;13.47;;;7.00;99.90;;;;;;8370442;28;20599;-80
2022/11/26 07:40:42;;;;;;;27.23;14.03;;;7.00;99.90;;;;;;8372349;28;20189;-79
2022/11/26 07:44:43;;;;;;;23.77;14.07;;;7.00;99.90;;;;;;8378657;28;20186;-80
2022/11/26 07:48:44;;;;;;;26.60;14.03;;;7.10;99.90;;;;;;8380654;28;20182;-79
2022/11/26 07:52:45;;;;;;;26.60;12.47;;;7.10;99.90;;;;;;8377508;28;20185;-80
2022/11/26 07:56:46;;;;;;;26.43;12.60;;;7.20;99.90;;;;;;8374459;28;20594;-80
2022/11/26 08:00:47;;;;;;;18.13;12.73;;;7.20;99.90;;;;;;8378772;28;20192;-80
2022/11/26 08:04:47;;;;;;;18.97;11.90;;;7.30;99.90;;;;;;8372315;28;20213;-80
2022/11/26 08:08:49;;;;;;;17.27;11.33;;;7.30;99.90;;;;;;8375966;28;20220;-79
2022/11/26 08:12:50;;;;;;;20.50;11.87;;;7.20;99.90;;;;;;8371166;28;20215;-80
2022/11/26 08:16:51;;;;;;;18.13;11.47;;;7.20;99.90;;;;;;8379824;28;20205;-80
2022/11/26 08:20:56;;;;;;;22.93;11.93;;;7.20;99.90;;;;;;8377695;28;20217;-80
2022/11/26 08:24:57;;;;;;;21.43;12.37;;;7.20;99.90;;;;;;8374855;28;20192;-80
2022/11/26 08:28:59;;;;;;;19.50;11.47;;;7.20;99.90;;;;;;8367151;28;20201;-78
2022/11/26 08:33:00;;;;;;;15.90;10.90;;;7.30;99.90;;;;;;8374750;28;20190;-79
2022/11/26 08:37:01;;;;;;;17.50;10.67;;;7.30;99.90;;;;;;8382805;28;20204;-80
2022/11/26 08:41:11;;;;;;;17.90;10.50;;;7.30;99.90;;;;;;8363304;28;20496;-80
2022/11/26 08:45:11;;;;;;;13.57;9.87;;;7.40;99.90;;;;;;8375653;28;20186;-80
2022/11/26 08:49:16;;;;;;;14.17;10.23;;;7.40;99.90;;;;;;8374148;28;20307;-80
2022/11/26 08:53:17;;;;;;;16.83;10.67;;;7.40;99.90;;;;;;8368815;28;20182;-80
2022/11/26 08:57:18;;;;;;;14.53;9.57;;;7.40;99.90;;;;;;8369512;28;20205;-80
2022/11/26 09:01:25;;;;;;;15.87;10.50;;;7.50;99.90;;;;;;8374772;28;20185;-80
2022/11/26 09:05:26;;;;;;;20.27;11.43;;;7.60;99.90;;;;;;8376868;28;20259;-80
2022/11/26 09:09:27;;;;;;;19.00;11.57;;;7.60;99.90;;;;;;8375721;28;20188;-80
2022/11/26 09:13:28;;;;;;;16.40;10.23;;;7.70;99.90;;;;;;8375490;28;20185;-80
2022/11/26 09:17:29;;;;;;;19.00;10.67;;;7.70;99.90;;;;;;8376562;28;20198;-80
2022/11/26 09:21:30;;;;;;;16.17;11.43;;;7.60;99.90;;;;;;8376611;28;20204;-80
2022/11/26 09:25:31;;;;;;;20.53;11.83;;;7.60;99.90;;;;;;8370225;28;20193;-80
2022/11/26 09:29:32;;;;;;;20.97;13.07;;;7.70;99.90;;;;;;8370108;28;20197;-80
2022/11/26 09:33:32;;;;;;;22.13;12.80;;;7.60;99.90;;;;;;8362803;28;20244;-80
2022/11/26 09:37:33;;;;;;;16.90;11.43;;;7.60;99.90;;;;;;8368423;28;20252;-80
2022/11/26 09:41:50;;;;;;;21.10;11.33;;;7.60;99.90;;;;;;8368695;28;20181;-80
2022/11/26 09:45:54;;;;;;;19.13;11.53;;;7.70;99.90;;;;;;8371856;28;20178;-80
2022/11/26 09:50:15;;;;;;;20.07;12.33;;;7.80;99.90;;;;;;8375516;28;20198;-80
2022/11/26 09:54:20;;;;;;;17.83;10.47;;;7.90;99.90;;;;;;8384997;28;20189;-81
2022/11/26 09:58:21;;;;;;;15.10;10.30;;;8.10;99.90;;;;;;8363848;28;20267;-80
2022/11/26 10:02:23;;;;;;;13.47;9.27;;;8.20;99.90;;;;;;8371157;28;20181;-80
2022/11/26 10:06:49;;;;;;;12.10;8.97;;;8.20;99.90;;;;;;8367078;28;20193;-80
2022/11/26 10:11:02;;;;;;;12.33;8.53;;;8.30;99.90;;;;;;8369107;28;20185;-80
2022/11/26 10:15:09;;;;;;;12.17;8.80;;;8.40;99.90;;;;;;8359472;28;20204;-81
2022/11/26 10:19:42;;;;;;;11.43;8.47;;;8.50;99.90;;;;;;8367117;28;20210;-80
2022/11/26 10:24:09;;;;;;;13.70;9.37;;;8.60;99.90;;;;;;8373268;28;21344;-80
2022/11/26 10:28:29;;;;;;;17.50;9.97;;;8.50;99.90;;;;;;8370934;28;20190;-80
2022/11/26 10:32:41;;;;;;;16.37;10.30;;;8.40;99.90;;;;;;8370233;28;20265;-79
2022/11/26 10:36:45;;;;;;;15.50;10.07;;;8.50;99.90;;;;;;8370269;28;20243;-80
2022/11/26 10:40:46;;;;;;;13.83;9.73;;;8.60;99.90;;;;;;8367163;28;20243;-80
2022/11/26 10:44:49;;;;;;;15.40;9.40;;;8.50;99.90;;;;;;8372100;28;20182;-79
2022/11/26 10:48:50;;;;;;;11.87;9.00;;;8.60;99.90;;;;;;8380239;28;20189;-80
2022/11/26 10:52:52;;;;;;;10.90;7.30;;;8.60;99.90;;;;;;8374173;28;20196;-80
2022/11/26 10:56:54;;;;;;;8.67;6.70;;;8.60;99.90;;;;;;8378510;28;20215;-80
2022/11/26 11:00:58;;;;;;;7.07;5.73;;;8.60;99.90;;;;;;8374277;28;20178;-80
2022/11/26 11:05:07;;;;;;;7.23;5.90;;;8.60;99.90;;;;;;8371266;28;20173;-80
2022/11/26 11:09:28;;;;;;;6.90;6.20;;;8.50;99.90;;;;;;8376655;28;20181;-80
2022/11/26 11:13:43;;;;;;;7.13;5.77;;;8.50;99.90;;;;;;8373651;28;20186;-80
2022/11/26 11:17:46;;;;;;;9.53;6.00;;;8.50;99.90;;;;;;8379492;28;20205;-80
2022/11/26 11:21:47;;;;;;;8.30;7.20;;;8.40;99.90;;;;;;8374759;28;20186;-79
2022/11/26 11:26:09;;;;;;;10.97;8.07;;;8.30;99.90;;;;;;8374032;28;20177;-79
2022/11/26 11:30:29;;;;;;;11.20;9.53;;;8.20;99.90;;;;;;8377283;28;20222;-79
2022/11/26 11:34:39;;;;;;;9.67;8.07;;;8.10;99.90;;;;;;8372359;28;20178;-79
2022/11/26 11:38:50;;;;;;;11.10;7.10;;;8.10;99.90;;;;;;8376547;28;20212;-80
2022/11/26 11:42:59;;;;;;;9.10;6.73;;;8.20;99.90;;;;;;8376107;28;20431;-80
2022/11/26 11:47:27;;;;;;;8.67;6.90;;;8.30;99.90;;;;;;8375865;28;20178;-80
2022/11/26 11:51:46;;;;;;;7.60;6.80;;;8.20;99.90;;;;;;8376811;28;20205;-79
2022/11/26 11:55:57;;;;;;;5.20;3.80;;;8.20;99.90;;;;;;8375348;28;20213;-79
2022/11/26 12:00:10;;;;;;;6.77;5.60;;;8.00;99.90;;;;;;8369184;28;20227;-80
2022/11/26 12:04:26;;;;;;;13.97;8.77;;;7.70;99.90;;;;;;8377202;28;20284;-79
2022/11/26 12:08:33;;;;;;;9.47;8.00;;;7.60;99.90;;;;;;8375649;28;20189;-78
2022/11/26 12:12:37;;;;;;;20.07;13.27;;;7.40;99.90;;;;;;8379848;28;20207;-79
2022/11/26 12:16:42;;;;;;;21.20;14.30;;;7.40;99.90;;;;;;8373346;28;20277;-79
2022/11/26 12:21:07;;;;;;;27.57;18.07;;;7.40;99.90;;;;;;8372323;28;20178;-79
2022/11/26 12:25:31;;;;;;;13.43;9.50;;;7.30;99.90;;;;;;8370943;28;20186;-80
2022/11/26 12:29:46;;;;;;;5.53;4.47;;;7.30;99.90;;;;;;8372265;28;20205;-79
2022/11/26 12:33:51;;;;;;;4.30;3.47;;;7.20;99.90;;;;;;8375151;28;20527;-79
2022/11/26 12:37:59;;;;;;;6.63;5.00;;;7.10;99.90;;;;;;8374633;28;20205;-79
2022/11/26 12:42:19;;;;;;;6.20;5.10;;;7.10;99.90;;;;;;8372895;28;20177;-78
2022/11/26 12:46:30;;;;;;;7.60;4.80;;;7.00;99.90;;;;;;8372432;28;20264;-79
2022/11/26 12:51:03;;;;;;;9.97;5.60;;;7.00;99.90;;;;;;8370487;28;20178;-78
2022/11/26 12:55:19;;;;;;;3.93;3.20;;;7.00;99.90;;;;;;8360358;28;20196;-78
2022/11/26 12:59:32;;;;;;;3.23;2.77;;;7.10;99.90;;;;;;8372914;28;20327;-78
2022/11/26 13:03:33;;;;;;;4.23;3.23;;;6.90;99.90;;;;;;8373396;28;20174;-78
2022/11/26 13:08:00;;;;;;;4.30;3.90;;;6.90;99.90;;;;;;8369580;28;20276;-78
2022/11/26 13:12:16;;;;;;;4.87;3.73;;;6.80;99.90;;;;;;8365303;28;20194;-78
2022/11/26 13:16:33;;;;;;;4.87;3.57;;;6.90;99.90;;;;;;8378217;28;20182;-78
2022/11/26 13:20:45;;;;;;;7.30;5.30;;;6.80;99.90;;;;;;8374617;28;20174;-79
2022/11/26 13:25:27;;;;;;;5.03;4.10;;;6.80;99.90;;;;;;8377335;28;20181;-79
2022/11/26 13:29:51;;;;;;;6.13;4.33;;;6.70;99.90;;;;;;8371803;28;20197;-78
2022/11/26 13:34:10;;;;;;;7.87;5.17;;;6.70;99.90;;;;;;8368464;28;20182;-78
2022/11/26 13:38:48;;;;;;;9.03;5.57;;;6.70;99.90;;;;;;8368479;28;20205;-78
2022/11/26 13:43:14;;;;;;;5.20;3.73;;;6.80;99.90;;;;;;8373783;28;20177;-78
2022/11/26 13:47:28;;;;;;;7.77;5.13;;;6.80;99.90;;;;;;8368848;28;20196;-78
2022/11/26 13:51:37;;;;;;;8.40;5.73;;;6.70;99.90;;;;;;8372401;28;20189;-79
2022/11/26 13:56:01;;;;;;;7.53;5.03;;;6.70;99.90;;;;;;8372543;28;20181;-79
2022/11/26 14:00:02;;;;;;;8.67;5.63;;;6.70;99.90;;;;;;8364684;28;20213;-79
2022/11/26 14:04:07;;;;;;;7.47;5.47;;;6.70;99.90;;;;;;8375116;28;20192;-78
2022/11/26 14:08:48;;;;;;;7.33;5.70;;;6.70;99.90;;;;;;8373706;28;20190;-79
2022/11/26 14:13:06;;;;;;;8.67;4.97;;;6.70;99.90;;;;;;8374820;28;20190;-77
2022/11/26 14:17:07;;;;;;;5.50;4.57;;;6.70;99.90;;;;;;8369884;28;20205;-78
2022/11/26 14:21:12;;;;;;;10.43;7.87;;;6.70;99.90;;;;;;8373749;28;20191;-78
2022/11/26 14:25:13;;;;;;;8.73;6.40;;;6.70;99.90;;;;;;8376950;28;20211;-78
2022/11/26 14:29:17;;;;;;;11.77;6.70;;;6.70;99.90;;;;;;8375959;28;20197;-78
2022/11/26 14:33:26;;;;;;;10.10;6.60;;;6.70;99.90;;;;;;8381818;28;20241;-79
2022/11/26 14:37:29;;;;;;;11.97;7.37;;;6.70;99.90;;;;;;8382045;28;20210;-79
2022/11/26 14:41:42;;;;;;;18.73;7.40;;;6.70;99.90;;;;;;8375457;28;20185;-78
2022/11/26 14:45:46;;;;;;;11.77;6.83;;;6.80;99.90;;;;;;8378211;28;20181;-78
2022/11/26 14:49:53;;;;;;;16.80;6.97;;;6.80;99.90;;;;;;8370666;28;20223;-79
2022/11/26 14:53:55;;;;;;;19.27;7.57;;;6.80;99.90;;;;;;8371881;28;20186;-78
2022/11/26 14:58:02;;;;;;;14.67;6.40;;;6.70;99.90;;;;;;8376516;28;20210;-79
2022/11/26 15:02:18;;;;;;;22.73;6.90;;;6.70;99.90;;;;;;8376642;28;20177;-78
2022/11/26 15:06:33;;;;;;;16.77;7.27;;;6.70;99.90;;;;;;8376878;28;20181;-78
2022/11/26 15:10:56;;;;;;;14.90;6.33;;;6.70;99.90;;;;;;8378337;28;20436;-78
2022/11/26 15:14:58;;;;;;;17.27;6.50;;;6.70;99.90;;;;;;8371056;28;20273;-79
2022/11/26 15:19:01;;;;;;;15.90;6.03;;;6.70;99.90;;;;;;8370202;28;20223;-78
2022/11/26 15:23:05;;;;;;;16.77;5.97;;;6.70;99.90;;;;;;8375840;28;20236;-79
2022/11/26 15:27:29;;;;;;;11.93;6.03;;;6.70;99.90;;;;;;8375529;28;20245;-79
2022/11/26 15:31:40;;;;;;;12.80;5.53;;;6.70;99.90;;;;;;8371797;28;20204;-79
2022/11/26 15:35:42;;;;;;;16.27;5.63;;;6.60;99.90;;;;;;8378183;28;20178;-78
2022/11/26 15:39:43;;;;;;;20.00;6.37;;;6.60;99.90;;;;;;8370275;28;20206;-78
2022/11/26 15:43:55;;;;;;;16.50;6.10;;;6.60;99.90;;;;;;8376667;28;20191;-78
2022/11/26 15:47:56;;;;;;;14.60;6.07;;;6.60;99.90;;;;;;8379341;28;20181;-79
2022/11/26 15:52:03;;;;;;;19.77;7.10;;;6.60;99.90;;;;;;8371852;28;20180;-78
2022/11/26 15:56:06;;;;;;;16.27;6.33;;;6.60;99.90;;;;;;8371167;28;20288;-79
2022/11/26 16:00:31;;;;;;;19.43;6.17;;;6.60;99.90;;;;;;8374167;28;20208;-78
2022/11/26 16:04:32;;;;;;;13.07;5.67;;;6.60;99.90;;;;;;8376385;28;20220;-78
2022/11/26 16:08:33;;;;;;;9.03;5.73;;;6.60;99.90;;;;;;8374823;28;20264;-78
2022/11/26 16:12:35;;;;;;;15.87;5.97;;;6.60;99.90;;;;;;8377103;28;20189;-79
2022/11/26 16:16:36;;;;;;;20.40;8.70;;;6.60;99.90;;;;;;8370926;28;20213;-79
2022/11/26 16:20:37;;;;;;;22.70;8.17;;;6.50;99.90;;;;;;8375484;28;20200;-79
2022/11/26 16:24:41;;;;;;;17.70;8.90;;;6.50;99.90;;;;;;8375727;28;20184;-78
2022/11/26 16:28:46;;;;;;;18.77;7.70;;;6.50;99.90;;;;;;8375493;28;20259;-79
2022/11/26 16:32:50;;;;;;;21.63;9.03;;;6.50;99.90;;;;;;8359819;28;20256;-79
2022/11/26 16:36:58;;;;;;;19.07;8.03;;;6.50;99.90;;;;;;8383371;28;20205;-79
2022/11/26 16:40:59;;;;;;;20.00;9.17;;;6.50;99.90;;;;;;8375748;28;20189;-78
2022/11/26 16:45:00;;;;;;;29.00;8.47;;;6.50;99.90;;;;;;8372520;28;20178;-79
2022/11/26 16:49:02;;;;;;;24.60;9.07;;;6.40;99.90;;;;;;8371302;28;20186;-80
2022/11/26 16:53:03;;;;;;;29.13;13.37;;;6.40;99.90;;;;;;8372253;28;20271;-80
2022/11/26 16:57:05;;;;;;;24.47;10.57;;;6.40;99.90;;;;;;8371137;28;20211;-80
2022/11/26 17:01:06;;;;;;;24.83;10.00;;;6.40;99.90;;;;;;8370272;28;20217;-80
2022/11/26 17:05:07;;;;;;;23.53;10.13;;;6.30;99.90;;;;;;8370570;28;20277;-80
2022/11/26 17:09:17;;;;;;;19.80;8.93;;;6.30;99.90;;;;;;8372079;28;20181;-80
2022/11/26 17:13:19;;;;;;;27.07;11.13;;;6.30;99.90;;;;;;8364820;28;20267;-81
2022/11/26 17:17:29;;;;;;;25.53;12.80;;;6.30;99.90;;;;;;8374696;28;20201;-81
2022/11/26 17:21:30;;;;;;;30.60;11.40;;;6.30;99.90;;;;;;8379672;28;20612;-80
2022/11/26 17:25:31;;;;;;;21.23;10.07;;;6.30;99.90;;;;;;8368143;28;20181;-80
2022/11/26 17:29:32;;;;;;;18.53;9.83;;;6.30;99.90;;;;;;8371644;28;20200;-80
2022/11/26 17:33:33;;;;;;;24.10;10.40;;;6.30;99.90;;;;;;8371059;28;20200;-80
2022/11/26 17:37:35;;;;;;;24.23;9.40;;;6.20;99.90;;;;;;8376789;28;20218;-80
2022/11/26 17:41:36;;;;;;;17.97;9.57;;;6.20;99.90;;;;;;8369407;28;20197;-78
2022/11/26 17:45:37;;;;;;;23.23;12.20;;;6.20;99.90;;;;;;8369134;28;20176;-79
2022/11/26 17:49:37;;;;;;;18.57;10.93;;;6.30;99.90;;;;;;8365200;28;20216;-81
2022/11/26 17:53:38;;;;;;;21.43;8.93;;;6.30;99.90;;;;;;8365515;28;20177;-79
2022/11/26 17:57:39;;;;;;;21.63;9.83;;;6.30;99.90;;;;;;8367547;28;20212;-79
2022/11/26 18:01:40;;;;;;;23.07;8.87;;;6.30;99.90;;;;;;8367887;28;20178;-79
2022/11/26 18:05:41;;;;;;;18.67;9.40;;;6.20;99.90;;;;;;8375688;28;20209;-80
2022/11/26 18:09:42;;;;;;;24.70;12.43;;;6.20;99.90;;;;;;8372457;28;20184;-79
2022/11/26 18:13:44;;;;;;;18.43;8.67;;;6.20;99.90;;;;;;8371022;28;20582;-79
2022/11/26 18:17:47;;;;;;;26.20;11.57;;;6.20;99.90;;;;;;8378763;28;20206;-79
2022/11/26 18:21:49;;;;;;;23.20;10.37;;;6.20;99.90;;;;;;8381714;28;20216;-79
2022/11/26 18:25:50;;;;;;;24.93;9.77;;;6.10;99.90;;;;;;8357215;28;20189;-79
2022/11/26 18:29:51;;;;;;;24.63;9.43;;;6.10;99.90;;;;;;8370414;28;20203;-79
2022/11/26 18:33:52;;;;;;;22.87;10.30;;;6.10;99.90;;;;;;8368178;28;20182;-79
2022/11/26 18:37:53;;;;;;;26.13;9.73;;;6.00;99.90;;;;;;8369747;28;20205;-80
2022/11/26 18:41:53;;;;;;;18.80;9.57;;;6.00;99.90;;;;;;8373045;28;20187;-80
2022/11/26 18:45:54;;;;;;;17.67;8.77;;;5.90;99.90;;;;;;8370548;28;20182;-79
2022/11/26 18:49:55;;;;;;;20.73;9.40;;;5.90;99.90;;;;;;8375554;28;20276;-79
2022/11/26 18:53:56;;;;;;;14.43;8.40;;;5.90;99.90;;;;;;8375619;28;20189;-80
2022/11/26 18:57:57;;;;;;;22.97;9.27;;;5.90;99.90;;;;;;8377191;28;20213;-79
2022/11/26 19:01:58;;;;;;;20.90;9.00;;;6.00;99.90;;;;;;8374821;28;20209;-79
2022/11/26 19:06:07;;;;;;;14.27;7.80;;;6.00;99.90;;;;;;8385028;28;20174;-80
2022/11/26 19:10:08;;;;;;;16.47;8.87;;;6.00;99.90;;;;;;8369168;28;20200;-77
2022/11/26 19:14:12;;;;;;;24.93;7.83;;;6.00;99.90;;;;;;8374778;28;20259;-78
2022/11/26 19:18:13;;;;;;;16.47;7.43;;;6.00;99.90;;;;;;8379964;28;20202;-79
2022/11/26 19:22:14;;;;;;;14.67;8.47;;;6.00;99.90;;;;;;8374320;28;20255;-78
2022/11/26 19:26:16;;;;;;;15.60;7.73;;;5.90;99.90;;;;;;8381648;28;20223;-78
2022/11/26 19:30:17;;;;;;;14.23;8.10;;;6.00;99.90;;;;;;8373729;28;20284;-79
2022/11/26 19:34:18;;;;;;;29.60;7.73;;;6.00;99.90;;;;;;8372678;28;20185;-80
2022/11/26 19:38:19;;;;;;;16.20;7.23;;;6.00;99.90;;;;;;8374730;28;20299;-78
2022/11/26 19:42:20;;;;;;;16.00;7.93;;;6.00;99.90;;;;;;8377788;28;20474;-79
2022/11/26 19:46:24;;;;;;;27.10;9.77;;;6.00;99.90;;;;;;8378004;28;20249;-79
2022/11/26 19:50:26;;;;;;;23.57;10.17;;;6.00;99.90;;;;;;8379416;28;20178;-78
2022/11/26 19:54:27;;;;;;;17.87;9.13;;;6.00;99.90;;;;;;8380917;28;20197;-80
2022/11/26 19:58:29;;;;;;;27.07;9.80;;;6.00;99.90;;;;;;8380968;28;20239;-80
2022/11/26 20:02:30;;;;;;;21.17;9.03;;;6.00;99.90;;;;;;8386943;28;20314;-79
2022/11/26 20:06:33;;;;;;;24.20;10.47;;;6.00;99.90;;;;;;8379203;28;20182;-78
2022/11/26 20:10:36;;;;;;;19.10;9.00;;;6.00;99.90;;;;;;8379193;28;20280;-80
2022/11/26 20:14:37;;;;;;;17.80;8.17;;;6.00;99.90;;;;;;8380842;28;20219;-79
2022/11/26 20:18:39;;;;;;;23.97;7.83;;;6.00;99.90;;;;;;8368188;28;20219;-80
2022/11/26 20:22:40;;;;;;;18.03;7.30;;;6.00;99.90;;;;;;8374123;28;20194;-80
2022/11/26 20:26:42;;;;;;;18.67;7.07;;;5.90;99.90;;;;;;8373426;28;20290;-80
2022/11/26 20:30:43;;;;;;;26.87;7.70;;;5.90;99.90;;;;;;8382299;28;20208;-80
2022/11/26 20:34:44;;;;;;;18.30;6.67;;;5.90;99.90;;;;;;8377087;28;20211;-80
2022/11/26 20:38:45;;;;;;;16.03;7.33;;;5.90;99.90;;;;;;8372345;28;20193;-79
2022/11/26 20:42:46;;;;;;;21.60;7.13;;;5.80;99.90;;;;;;8378408;28;20219;-79
2022/11/26 20:46:47;;;;;;;17.47;7.13;;;5.80;99.90;;;;;;8374033;28;20192;-79
2022/11/26 20:50:49;;;;;;;20.33;7.13;;;5.80;99.90;;;;;;8358052;28;20284;-79
2022/11/26 20:54:50;;;;;;;17.27;8.17;;;5.80;99.90;;;;;;8370179;28;20214;-79
2022/11/26 20:58:52;;;;;;;15.60;7.60;;;5.80;99.90;;;;;;8374231;28;20217;-80
2022/11/26 21:02:53;;;;;;;11.87;7.17;;;5.70;99.90;;;;;;8371835;28;20200;-79
2022/11/26 21:06:53;;;;;;;13.93;6.93;;;5.70;99.90;;;;;;8379548;28;20186;-80
2022/11/26 21:10:54;;;;;;;17.63;7.43;;;5.70;99.90;;;;;;8372778;28;20361;-79
2022/11/26 21:14:55;;;;;;;11.93;5.90;;;5.70;99.90;;;;;;8367098;28;20738;-79